Chuna, Argentina
Current Conditions -  °F | °C
As of 9:00 PM on Friday 31 Oct 2014 (Local Time) from SACO Reporting Station
Broken Clouds Broken Clouds  
Wind Chill: 57°   Ceiling: 1500
Heat Index: 57°   Visibility: 6mi
Dew Point: 45°   Wind: 9mph
Humidity: 63%   Direction: 200°SSW
Pressure: 30.12"   Gusts: NA
Location:  30.47°S, 64.67°W
Report Text: SACO 010000Z 20008KT 9999 SCT010 BKN01514/07 Q1020
Loading
Personal Weather Stations






























Interactive Weather Map
Tropical Storm Tracking
New forecast layout! Learn more

10-Day Weather Forecast

Advertisements
Track Severe Weather on mobile